sensor_id;sensor_type;location;lat;lon;timestamp;pressure;altitude;pressure_sealevel;temperature;humidity
58092;BME280;43896;48.178;11.578;2023-07-13T04:44:55;95914.84;;;19.53;75.21
58092;BME280;43896;48.178;11.578;2023-07-13T04:47:21;95929.06;;;19.46;77.20
58092;BME280;43896;48.178;11.578;2023-07-13T04:49:46;95927.75;;;19.04;79.82
58092;BME280;43896;48.178;11.578;2023-07-13T04:52:12;95930.13;;;19.32;77.62
58092;BME280;43896;48.178;11.578;2023-07-13T04:54:37;95925.38;;;19.41;76.90
58092;BME280;43896;48.178;11.578;2023-07-13T04:57:04;95894.84;;;19.30;77.05
58092;BME280;43896;48.178;11.578;2023-07-13T04:59:31;95899.72;;;19.46;75.74
58092;BME280;43896;48.178;11.578;2023-07-13T05:01:57;95947.00;;;19.78;75.56
58092;BME280;43896;48.178;11.578;2023-07-13T05:04:22;95909.03;;;19.69;75.05
58092;BME280;43896;48.178;11.578;2023-07-13T05:06:47;95929.53;;;19.75;74.93
58092;BME280;43896;48.178;11.578;2023-07-13T05:09:12;95924.00;;;19.77;74.60
58092;BME280;43896;48.178;11.578;2023-07-13T05:11:38;95960.94;;;19.80;75.07
58092;BME280;43896;48.178;11.578;2023-07-13T05:14:03;95956.56;;;19.40;77.78
58092;BME280;43896;48.178;11.578;2023-07-13T05:16:29;95893.09;;;19.10;77.74
58092;BME280;43896;48.178;11.578;2023-07-13T05:18:54;95924.13;;;19.43;77.30
58092;BME280;43896;48.178;11.578;2023-07-13T05:21:19;95940.31;;;19.48;76.54
58092;BME280;43896;48.178;11.578;2023-07-13T05:23:45;95963.91;;;19.52;77.18
58092;BME280;43896;48.178;11.578;2023-07-13T05:26:11;95969.09;;;19.33;78.69
58092;BME280;43896;48.178;11.578;2023-07-13T05:28:37;95947.63;;;19.15;79.17
58092;BME280;43896;48.178;11.578;2023-07-13T05:31:03;95902.06;;;19.23;77.61
58092;BME280;43896;48.178;11.578;2023-07-13T05:33:28;95918.75;;;18.98;78.67
58092;BME280;43896;48.178;11.578;2023-07-13T05:35:54;95966.22;;;19.35;77.60
58092;BME280;43896;48.178;11.578;2023-07-13T05:38:19;95940.16;;;19.37;77.44
58092;BME280;43896;48.178;11.578;2023-07-13T05:40:45;95956.69;;;19.65;76.33
58092;BME280;43896;48.178;11.578;2023-07-13T05:43:11;95945.00;;;19.60;76.88
58092;BME280;43896;48.178;11.578;2023-07-13T05:45:37;95949.91;;;19.63;75.99
58092;BME280;43896;48.178;11.578;2023-07-13T05:48:02;95958.44;;;19.33;78.52
58092;BME280;43896;48.178;11.578;2023-07-13T05:50:27;95930.13;;;19.32;77.27
58092;BME280;43896;48.178;11.578;2023-07-13T05:52:53;95911.06;;;19.22;76.48
58092;BME280;43896;48.178;11.578;2023-07-13T05:55:19;95904.66;;;19.43;75.77
58092;BME280;43896;48.178;11.578;2023-07-13T05:57:44;95903.34;;;19.59;75.79
58092;BME280;43896;48.178;11.578;2023-07-13T06:00:10;95952.38;;;19.58;77.75
58092;BME280;43896;48.178;11.578;2023-07-13T06:02:36;95916.13;;;19.43;77.18
58092;BME280;43896;48.178;11.578;2023-07-13T06:05:01;95902.19;;;19.48;76.01
58092;BME280;43896;48.178;11.578;2023-07-13T06:07:26;95951.06;;;19.80;75.19
58092;BME280;43896;48.178;11.578;2023-07-13T06:09:52;95960.31;;;19.26;78.07
58092;BME280;43896;48.178;11.578;2023-07-13T06:12:17;95958.97;;;19.62;76.73
58092;BME280;43896;48.178;11.578;2023-07-13T06:14:42;95959.72;;;19.82;76.65
58092;BME280;43896;48.178;11.578;2023-07-13T06:17:08;95981.13;;;20.08;76.21
58092;BME280;43896;48.178;11.578;2023-07-13T06:19:34;95987.94;;;20.03;77.51
58092;BME280;43896;48.178;11.578;2023-07-13T06:21:59;95934.84;;;19.82;76.11
58092;BME280;43896;48.178;11.578;2023-07-13T06:24:25;95949.44;;;19.86;77.83
58092;BME280;43896;48.178;11.578;2023-07-13T06:26:50;95949.44;;;19.73;78.50
58092;BME280;43896;48.178;11.578;2023-07-13T06:29:15;95953.97;;;19.79;77.81
58092;BME280;43896;48.178;11.578;2023-07-13T06:31:40;95964.84;;;20.16;74.33
58092;BME280;43896;48.178;11.578;2023-07-13T06:34:06;95989.88;;;20.53;73.23
58092;BME280;43896;48.178;11.578;2023-07-13T06:36:31;95958.06;;;20.45;73.09
58092;BME280;43896;48.178;11.578;2023-07-13T06:38:56;95912.97;;;20.30;72.79
58092;BME280;43896;48.178;11.578;2023-07-13T06:41:22;95951.84;;;19.94;76.64
58092;BME280;43896;48.178;11.578;2023-07-13T06:43:47;95939.91;;;19.97;74.54
58092;BME280;43896;48.178;11.578;2023-07-13T06:46:13;96015.31;;;20.56;73.18
58092;BME280;43896;48.178;11.578;2023-07-13T06:48:38;95974.00;;;20.27;73.18
58092;BME280;43896;48.178;11.578;2023-07-13T06:51:03;96011.72;;;20.43;71.88
58092;BME280;43896;48.178;11.578;2023-07-13T06:53:29;96000.13;;;19.86;74.21
58092;BME280;43896;48.178;11.578;2023-07-13T06:55:54;96021.06;;;20.28;72.10
58092;BME280;43896;48.178;11.578;2023-07-13T06:58:20;95973.06;;;20.14;70.39
58092;BME280;43896;48.178;11.578;2023-07-13T07:00:45;95994.28;;;20.41;70.50
58092;BME280;43896;48.178;11.578;2023-07-13T07:03:11;96020.44;;;20.64;69.56
58092;BME280;43896;48.178;11.578;2023-07-13T07:05:36;95986.63;;;20.13;73.49
58092;BME280;43896;48.178;11.578;2023-07-13T07:08:01;96037.72;;;20.61;68.63
58092;BME280;43896;48.178;11.578;2023-07-13T07:10:30;95999.13;;;20.51;68.96
58092;BME280;43896;48.178;11.578;2023-07-13T07:12:55;96029.75;;;20.80;67.70
58092;BME280;43896;48.178;11.578;2023-07-13T07:15:20;96016.31;;;19.98;72.64
58092;BME280;43896;48.178;11.578;2023-07-13T07:17:46;96040.44;;;20.16;72.21
58092;BME280;43896;48.178;11.578;2023-07-13T07:20:12;96046.72;;;20.67;67.31
58092;BME280;43896;48.178;11.578;2023-07-13T07:22:37;96016.00;;;20.51;66.88
58092;BME280;43896;48.178;11.578;2023-07-13T07:25:03;95997.47;;;20.82;67.02
58092;BME280;43896;48.178;11.578;2023-07-13T07:27:28;96014.50;;;20.87;65.12
58092;BME280;43896;48.178;11.578;2023-07-13T07:29:54;96014.06;;;20.90;64.47
58092;BME280;43896;48.178;11.578;2023-07-13T07:32:20;96017.44;;;20.79;63.02
58092;BME280;43896;48.178;11.578;2023-07-13T07:34:45;95979.06;;;20.41;64.27
58092;BME280;43896;48.178;11.578;2023-07-13T07:37:12;96045.44;;;21.02;63.34
58092;BME280;43896;48.178;11.578;2023-07-13T07:39:38;96018.97;;;20.93;60.83
58092;BME280;43896;48.178;11.578;2023-07-13T07:42:03;96009.72;;;19.94;66.50
58092;BME280;43896;48.178;11.578;2023-07-13T07:44:30;96061.88;;;20.41;66.32
58092;BME280;43896;48.178;11.578;2023-07-13T07:46:56;96042.28;;;20.54;66.53
58092;BME280;43896;48.178;11.578;2023-07-13T07:49:21;96053.88;;;20.35;63.52
58092;BME280;43896;48.178;11.578;2023-07-13T07:51:46;96012.81;;;20.36;62.76
58092;BME280;43896;48.178;11.578;2023-07-13T07:54:12;96031.13;;;20.64;62.81
58092;BME280;43896;48.178;11.578;2023-07-13T07:56:38;96042.50;;;20.53;62.68
58092;BME280;43896;48.178;11.578;2023-07-13T07:59:03;96044.69;;;20.63;62.59
58092;BME280;43896;48.178;11.578;2023-07-13T08:01:29;96024.44;;;19.51;70.73
58092;BME280;43896;48.178;11.578;2023-07-13T08:03:54;96001.78;;;19.80;65.66
58092;BME280;43896;48.178;11.578;2023-07-13T08:06:19;96082.38;;;20.54;62.81
58092;BME280;43896;48.178;11.578;2023-07-13T08:08:45;96093.81;;;20.61;63.27
58092;BME280;43896;48.178;11.578;2023-07-13T08:11:10;96047.97;;;19.88;67.07
58092;BME280;43896;48.178;11.578;2023-07-13T08:13:36;96062.81;;;19.57;70.05
58092;BME280;43896;48.178;11.578;2023-07-13T08:16:04;96079.94;;;20.01;67.61
58092;BME280;43896;48.178;11.578;2023-07-13T08:18:29;96097.88;;;20.32;66.48
58092;BME280;43896;48.178;11.578;2023-07-13T08:20:55;96057.47;;;20.22;67.01
58092;BME280;43896;48.178;11.578;2023-07-13T08:23:22;96048.22;;;20.18;66.07
58092;BME280;43896;48.178;11.578;2023-07-13T08:25:54;96045.22;;;19.29;70.57
58092;BME280;43896;48.178;11.578;2023-07-13T08:28:21;96100.88;;;20.04;70.27
58092;BME280;43896;48.178;11.578;2023-07-13T08:30:47;96055.28;;;19.99;66.52
58092;BME280;43896;48.178;11.578;2023-07-13T08:33:18;96096.25;;;20.31;62.95
58092;BME280;43896;48.178;11.578;2023-07-13T08:35:48;96069.44;;;19.21;68.15
58092;BME280;43896;48.178;11.578;2023-07-13T08:38:15;96045.16;;;19.49;66.69
58092;BME280;43896;48.178;11.578;2023-07-13T08:40:42;96068.03;;;19.97;61.30
58092;BME280;43896;48.178;11.578;2023-07-13T08:43:20;96119.31;;;20.12;60.75
58092;BME280;43896;48.178;11.578;2023-07-13T08:46:13;96105.44;;;19.83;63.91
58092;BME280;43896;48.178;11.578;2023-07-13T08:48:57;96123.28;;;20.03;60.32
58092;BME280;43896;48.178;11.578;2023-07-13T08:51:43;96125.81;;;20.30;58.05
58092;BME280;43896;48.178;11.578;2023-07-13T08:54:18;96111.81;;;20.41;55.44
58092;BME280;43896;48.178;11.578;2023-07-13T08:56:46;96103.91;;;20.14;56.93
58092;BME280;43896;48.178;11.578;2023-07-13T08:59:16;96123.28;;;20.48;55.73
58092;BME280;43896;48.178;11.578;2023-07-13T09:02:09;96131.75;;;20.38;54.40
58092;BME280;43896;48.178;11.578;2023-07-13T09:04:56;96130.34;;;20.36;58.38
58092;BME280;43896;48.178;11.578;2023-07-13T09:15:26;96099.25;;;20.03;56.87
58092;BME280;43896;48.178;11.578;2023-07-13T09:17:58;96122.09;;;20.37;55.94
58092;BME280;43896;48.178;11.578;2023-07-13T09:20:34;96122.72;;;19.88;57.93
58092;BME280;43896;48.178;11.578;2023-07-13T09:23:04;96100.72;;;19.85;57.24
58092;BME280;43896;48.178;11.578;2023-07-13T09:25:35;96116.19;;;20.29;56.59
58092;BME280;43896;48.178;11.578;2023-07-13T09:28:34;96115.72;;;19.80;60.40
58092;BME280;43896;48.178;11.578;2023-07-13T09:31:13;96113.31;;;19.52;59.08
58092;BME280;43896;48.178;11.578;2023-07-13T09:33:39;96117.19;;;19.82;57.41
58092;BME280;43896;48.178;11.578;2023-07-13T09:38:49;96109.44;;;20.19;57.14
58092;BME280;43896;48.178;11.578;2023-07-13T09:41:39;96120.69;;;20.28;55.46
58092;BME280;43896;48.178;11.578;2023-07-13T09:46:35;96130.75;;;20.33;56.90
58092;BME280;43896;48.178;11.578;2023-07-13T09:49:00;96117.38;;;19.88;58.44
58092;BME280;43896;48.178;11.578;2023-07-13T09:51:25;96123.63;;;20.58;54.94
58092;BME280;43896;48.178;11.578;2023-07-13T09:53:51;96099.06;;;20.82;51.96
58092;BME280;43896;48.178;11.578;2023-07-13T09:56:29;96110.38;;;20.84;54.96
58092;BME280;43896;48.178;11.578;2023-07-13T09:58:58;96119.81;;;21.36;57.33
58092;BME280;43896;48.178;11.578;2023-07-13T10:01:35;96122.06;;;21.65;51.63
58092;BME280;43896;48.178;11.578;2023-07-13T10:04:10;96121.19;;;21.89;54.30
58092;BME280;43896;48.178;11.578;2023-07-13T10:06:38;96103.25;;;22.45;52.10
58092;BME280;43896;48.178;11.578;2023-07-13T10:09:07;96108.13;;;22.37;44.54
58092;BME280;43896;48.178;11.578;2023-07-13T10:11:35;96115.91;;;22.20;46.69
58092;BME280;43896;48.178;11.578;2023-07-13T10:14:18;96114.66;;;22.41;49.39
58092;BME280;43896;48.178;11.578;2023-07-13T10:16:46;96121.47;;;21.81;47.89
58092;BME280;43896;48.178;11.578;2023-07-13T10:19:26;96131.25;;;22.13;47.89
58092;BME280;43896;48.178;11.578;2023-07-13T10:21:58;96136.66;;;22.24;46.96
58092;BME280;43896;48.178;11.578;2023-07-13T10:24:27;96138.63;;;22.36;46.33
58092;BME280;43896;48.178;11.578;2023-07-13T10:27:13;96131.91;;;22.26;47.71
58092;BME280;43896;48.178;11.578;2023-07-13T10:29:46;96130.75;;;21.60;51.16
58092;BME280;43896;48.178;11.578;2023-07-13T10:32:13;96132.72;;;21.90;48.78
58092;BME280;43896;48.178;11.578;2023-07-13T10:34:42;96125.13;;;22.24;48.82
58092;BME280;43896;48.178;11.578;2023-07-13T10:37:16;96121.38;;;22.62;49.78
58092;BME280;43896;48.178;11.578;2023-07-13T10:39:50;96119.47;;;23.58;46.91
58092;BME280;43896;48.178;11.578;2023-07-13T10:42:35;96122.69;;;24.31;42.71
58092;BME280;43896;48.178;11.578;2023-07-13T10:45:08;96073.59;;;23.60;44.01
58092;BME280;43896;48.178;11.578;2023-07-13T10:47:40;96100.22;;;23.62;44.11
58092;BME280;43896;48.178;11.578;2023-07-13T10:50:16;96065.88;;;22.51;46.10
58092;BME280;43896;48.178;11.578;2023-07-13T10:52:53;96086.78;;;22.72;44.71
58092;BME280;43896;48.178;11.578;2023-07-13T10:55:33;96140.09;;;22.80;46.32
58092;BME280;43896;48.178;11.578;2023-07-13T10:58:03;96109.25;;;23.01;44.91
58092;BME280;43896;48.178;11.578;2023-07-13T11:00:43;96128.38;;;22.63;46.87
58092;BME280;43896;48.178;11.578;2023-07-13T11:03:13;96095.75;;;22.36;45.75
58092;BME280;43896;48.178;11.578;2023-07-13T11:05:40;96144.25;;;23.49;45.64
58092;BME280;43896;48.178;11.578;2023-07-13T11:08:32;96137.66;;;23.33;44.70
58092;BME280;43896;48.178;11.578;2023-07-13T11:10:58;96108.78;;;23.82;42.48
58092;BME280;43896;48.178;11.578;2023-07-13T11:13:37;96139.34;;;23.57;43.14
58092;BME280;43896;48.178;11.578;2023-07-13T11:16:26;96103.25;;;23.18;42.92
58092;BME280;43896;48.178;11.578;2023-07-13T11:21:29;96100.03;;;22.97;41.99
58092;BME280;43896;48.178;11.578;2023-07-13T11:29:12;96088.63;;;23.02;43.33
58092;BME280;43896;48.178;11.578;2023-07-13T11:31:57;96100.34;;;23.67;41.22
58092;BME280;43896;48.178;11.578;2023-07-13T11:34:29;96120.19;;;23.89;40.61
58092;BME280;43896;48.178;11.578;2023-07-13T11:36:56;96110.59;;;24.46;39.14
58092;BME280;43896;48.178;11.578;2023-07-13T11:39:33;96069.59;;;24.39;41.16
58092;BME280;43896;48.178;11.578;2023-07-13T11:42:03;96059.28;;;24.76;39.12
58092;BME280;43896;48.178;11.578;2023-07-13T11:44:30;96124.75;;;24.82;40.03
58092;BME280;43896;48.178;11.578;2023-07-13T11:46:58;96071.50;;;24.67;38.65
58092;BME280;43896;48.178;11.578;2023-07-13T11:49:30;96084.06;;;24.78;38.79
58092;BME280;43896;48.178;11.578;2023-07-13T11:51:56;96095.97;;;24.82;39.26
58092;BME280;43896;48.178;11.578;2023-07-13T11:54:31;96074.25;;;25.18;41.43
58092;BME280;43896;48.178;11.578;2023-07-13T11:57:03;96039.41;;;25.11;39.37
58092;BME280;43896;48.178;11.578;2023-07-13T11:59:32;96045.59;;;24.61;43.94
58092;BME280;43896;48.178;11.578;2023-07-13T12:01:58;96069.56;;;25.13;39.66
58092;BME280;43896;48.178;11.578;2023-07-13T12:04:32;96046.09;;;24.75;39.75
58092;BME280;43896;48.178;11.578;2023-07-13T12:07:07;96076.41;;;25.72;38.30
58092;BME280;43896;48.178;11.578;2023-07-13T12:09:39;96040.97;;;25.07;39.52
58092;BME280;43896;48.178;11.578;2023-07-13T12:12:17;96096.78;;;24.66;40.44
58092;BME280;43896;48.178;11.578;2023-07-13T12:14:43;96103.94;;;24.60;40.80
58092;BME280;43896;48.178;11.578;2023-07-13T12:17:23;96100.88;;;24.57;40.75
58092;BME280;43896;48.178;11.578;2023-07-13T12:19:52;96061.03;;;23.37;42.90
58092;BME280;43896;48.178;11.578;2023-07-13T12:22:19;96089.84;;;23.89;42.44
58092;BME280;43896;48.178;11.578;2023-07-13T12:24:47;96060.81;;;24.55;41.32
58092;BME280;43896;48.178;11.578;2023-07-13T12:27:25;96097.53;;;24.78;41.01
58092;BME280;43896;48.178;11.578;2023-07-13T12:30:00;96057.00;;;24.10;41.41
58092;BME280;43896;48.178;11.578;2023-07-13T12:32:26;96023.91;;;24.10;41.72
58092;BME280;43896;48.178;11.578;2023-07-13T12:34:54;96023.78;;;23.52;43.54
58092;BME280;43896;48.178;11.578;2023-07-13T12:37:21;96020.53;;;23.50;43.79
58092;BME280;43896;48.178;11.578;2023-07-13T12:39:48;96028.06;;;23.89;43.08
58092;BME280;43896;48.178;11.578;2023-07-13T12:42:25;96063.94;;;24.52;42.64
58092;BME280;43896;48.178;11.578;2023-07-13T12:44:57;96066.34;;;24.37;41.43
58092;BME280;43896;48.178;11.578;2023-07-13T12:47:23;96030.94;;;24.40;39.72
58092;BME280;43896;48.178;11.578;2023-07-13T12:49:54;96027.81;;;24.48;40.58
58092;BME280;43896;48.178;11.578;2023-07-13T12:52:23;96031.34;;;24.20;43.61
58092;BME280;43896;48.178;11.578;2023-07-13T12:54:57;96057.94;;;23.92;42.50
58092;BME280;43896;48.178;11.578;2023-07-13T12:57:23;96082.44;;;24.48;44.00
58092;BME280;43896;48.178;11.578;2023-07-13T12:59:52;96035.78;;;24.55;42.79
58092;BME280;43896;48.178;11.578;2023-07-13T13:02:29;96060.53;;;25.53;39.46
58092;BME280;43896;48.178;11.578;2023-07-13T13:04:56;96021.72;;;24.98;38.56
58092;BME280;43896;48.178;11.578;2023-07-13T13:07:23;96055.25;;;25.41;40.06
58092;BME280;43896;48.178;11.578;2023-07-13T13:09:48;96067.25;;;25.34;39.31
58092;BME280;43896;48.178;11.578;2023-07-13T13:12:14;96014.78;;;25.36;39.42
58092;BME280;43896;48.178;11.578;2023-07-13T13:14:40;96061.69;;;25.79;36.74
58092;BME280;43896;48.178;11.578;2023-07-13T13:17:18;96023.03;;;25.13;37.93
58092;BME280;43896;48.178;11.578;2023-07-13T13:19:44;96028.66;;;24.48;38.66
58092;BME280;43896;48.178;11.578;2023-07-13T13:22:10;96009.09;;;24.82;36.85
58092;BME280;43896;48.178;11.578;2023-07-13T13:24:36;95983.31;;;25.03;38.13
58092;BME280;43896;48.178;11.578;2023-07-13T13:27:04;96019.66;;;25.78;39.44
58092;BME280;43896;48.178;11.578;2023-07-13T13:29:32;96009.47;;;25.80;39.82
58092;BME280;43896;48.178;11.578;2023-07-13T13:31:58;96051.78;;;26.02;39.34
58092;BME280;43896;48.178;11.578;2023-07-13T13:34:25;95995.38;;;25.00;38.19
58092;BME280;43896;48.178;11.578;2023-07-13T13:36:50;96021.97;;;24.97;40.31
58092;BME280;43896;48.178;11.578;2023-07-13T13:39:35;96055.03;;;25.26;38.47
58092;BME280;43896;48.178;11.578;2023-07-13T13:42:03;96024.81;;;25.07;37.86
58092;BME280;43896;48.178;11.578;2023-07-13T13:44:47;96032.41;;;24.47;37.40
58092;BME280;43896;48.178;11.578;2023-07-13T13:47:48;96078.91;;;24.48;39.69
58092;BME280;43896;48.178;11.578;2023-07-13T13:50:20;96060.63;;;24.62;39.90
58092;BME280;43896;48.178;11.578;2023-07-13T13:52:47;96061.38;;;24.57;38.55
58092;BME280;43896;48.178;11.578;2023-07-13T13:55:18;96004.38;;;24.14;37.88
58092;BME280;43896;48.178;11.578;2023-07-13T13:57:45;96078.66;;;24.61;38.02
58092;BME280;43896;48.178;11.578;2023-07-13T14:00:11;96059.81;;;24.32;38.85
58092;BME280;43896;48.178;11.578;2023-07-13T14:02:41;96061.16;;;24.59;40.41
58092;BME280;43896;48.178;11.578;2023-07-13T14:05:12;95984.28;;;23.88;39.31
58092;BME280;43896;48.178;11.578;2023-07-13T14:07:38;96024.34;;;24.47;38.73
58092;BME280;43896;48.178;11.578;2023-07-13T14:10:11;96017.88;;;24.77;39.00
58092;BME280;43896;48.178;11.578;2023-07-13T14:12:38;95991.22;;;24.59;39.71
58092;BME280;43896;48.178;11.578;2023-07-13T14:15:03;96016.25;;;24.59;39.07
58092;BME280;43896;48.178;11.578;2023-07-13T14:17:30;96017.06;;;24.77;37.78
58092;BME280;43896;48.178;11.578;2023-07-13T14:19:56;96068.69;;;24.90;39.40
58092;BME280;43896;48.178;11.578;2023-07-13T14:22:25;96064.72;;;24.36;39.56
58092;BME280;43896;48.178;11.578;2023-07-13T14:24:54;96060.50;;;24.68;40.64
58092;BME280;43896;48.178;11.578;2023-07-13T14:27:21;96063.94;;;24.52;40.57
58092;BME280;43896;48.178;11.578;2023-07-13T14:29:47;96017.97;;;24.37;40.14
58092;BME280;43896;48.178;11.578;2023-07-13T14:32:14;95982.84;;;24.55;39.41
58092;BME280;43896;48.178;11.578;2023-07-13T14:34:39;95985.41;;;24.50;39.64
58092;BME280;43896;48.178;11.578;2023-07-13T14:37:13;96014.13;;;24.61;39.39
58092;BME280;43896;48.178;11.578;2023-07-13T14:39:39;95987.88;;;24.85;37.72
58092;BME280;43896;48.178;11.578;2023-07-13T14:42:08;96072.69;;;25.56;38.85
58092;BME280;43896;48.178;11.578;2023-07-13T14:44:33;96026.69;;;25.40;36.72
58092;BME280;43896;48.178;11.578;2023-07-13T14:47:02;95994.63;;;25.22;38.52
58092;BME280;43896;48.178;11.578;2023-07-13T14:49:40;96055.41;;;25.35;38.75
58092;BME280;43896;48.178;11.578;2023-07-13T14:52:20;96022.53;;;24.82;39.28
58092;BME280;43896;48.178;11.578;2023-07-13T14:54:47;96025.50;;;25.31;38.86
58092;BME280;43896;48.178;11.578;2023-07-13T14:57:14;95987.69;;;25.43;38.16
58092;BME280;43896;48.178;11.578;2023-07-13T14:59:40;95985.88;;;25.49;36.78
58092;BME280;43896;48.178;11.578;2023-07-13T15:02:27;96028.06;;;24.92;38.03
58092;BME280;43896;48.178;11.578;2023-07-13T15:04:55;96062.97;;;24.87;39.37
58092;BME280;43896;48.178;11.578;2023-07-13T15:07:20;96055.47;;;24.89;37.96
58092;BME280;43896;48.178;11.578;2023-07-13T15:09:47;95997.22;;;24.49;37.71
58092;BME280;43896;48.178;11.578;2023-07-13T15:12:13;96052.72;;;25.35;38.22
58092;BME280;43896;48.178;11.578;2023-07-13T15:14:38;96052.47;;;25.36;37.23
58092;BME280;43896;48.178;11.578;2023-07-13T15:17:04;96054.22;;;25.25;38.06
58092;BME280;43896;48.178;11.578;2023-07-13T15:19:30;96045.13;;;24.81;39.48
58092;BME280;43896;48.178;11.578;2023-07-13T15:21:57;96047.88;;;25.20;37.94
58092;BME280;43896;48.178;11.578;2023-07-13T15:24:23;96034.09;;;25.16;39.00
58092;BME280;43896;48.178;11.578;2023-07-13T15:26:49;96039.00;;;25.53;36.78
58092;BME280;43896;48.178;11.578;2023-07-13T15:29:18;96048.38;;;25.51;37.74
58092;BME280;43896;48.178;11.578;2023-07-13T15:31:43;96045.13;;;25.49;36.36
58092;BME280;43896;48.178;11.578;2023-07-13T15:34:15;96039.25;;;25.52;36.13
58092;BME280;43896;48.178;11.578;2023-07-13T15:36:41;96045.88;;;25.66;37.36
58092;BME280;43896;48.178;11.578;2023-07-13T15:39:07;95983.97;;;24.93;36.91
58092;BME280;43896;48.178;11.578;2023-07-13T15:41:37;96041.88;;;25.30;38.01
58092;BME280;43896;48.178;11.578;2023-07-13T15:44:22;96034.06;;;25.28;37.51
58092;BME280;43896;48.178;11.578;2023-07-13T15:46:48;96021.63;;;25.27;37.60
58092;BME280;43896;48.178;11.578;2023-07-13T15:49:15;96025.56;;;25.36;36.81
58092;BME280;43896;48.178;11.578;2023-07-13T15:51:40;96020.03;;;25.26;38.23
58092;BME280;43896;48.178;11.578;2023-07-13T15:54:12;96022.00;;;25.31;36.59
58092;BME280;43896;48.178;11.578;2023-07-13T15:56:38;96033.47;;;25.43;37.01
58092;BME280;43896;48.178;11.578;2023-07-13T15:59:09;96040.88;;;25.19;38.07
58092;BME280;43896;48.178;11.578;2023-07-13T16:01:36;96011.69;;;24.48;38.30
58092;BME280;43896;48.178;11.578;2023-07-13T16:04:01;96024.63;;;24.34;39.58
58092;BME280;43896;48.178;11.578;2023-07-13T16:06:32;96032.31;;;24.71;39.03
58092;BME280;43896;48.178;11.578;2023-07-13T16:09:00;96049.69;;;24.97;37.66
58092;BME280;43896;48.178;11.578;2023-07-13T16:11:29;96046.31;;;24.73;39.06
58092;BME280;43896;48.178;11.578;2023-07-13T16:13:58;96036.47;;;24.96;38.05
58092;BME280;43896;48.178;11.578;2023-07-13T16:16:29;96006.53;;;24.58;38.94
58092;BME280;43896;48.178;11.578;2023-07-13T16:18:56;96034.88;;;24.95;37.83
58092;BME280;43896;48.178;11.578;2023-07-13T16:21:27;96046.59;;;25.05;37.58
58092;BME280;43896;48.178;11.578;2023-07-13T16:23:54;96049.53;;;25.04;38.53
58092;BME280;43896;48.178;11.578;2023-07-13T16:26:30;96052.13;;;24.99;38.37
58092;BME280;43896;48.178;11.578;2023-07-13T16:29:23;96037.94;;;24.69;37.25
58092;BME280;43896;48.178;11.578;2023-07-13T16:31:56;96057.03;;;24.85;36.93
58092;BME280;43896;48.178;11.578;2023-07-13T16:34:22;96038.00;;;24.58;37.71
58092;BME280;43896;48.178;11.578;2023-07-13T16:36:48;96064.72;;;24.36;39.54
58092;BME280;43896;48.178;11.578;2023-07-13T16:39:16;96067.25;;;24.42;39.58
58092;BME280;43896;48.178;11.578;2023-07-13T16:41:42;96056.47;;;24.13;39.84
58092;BME280;43896;48.178;11.578;2023-07-13T16:44:12;96073.03;;;24.22;41.20
58092;BME280;43896;48.178;11.578;2023-07-13T16:46:38;96077.94;;;24.25;39.74
58092;BME280;43896;48.178;11.578;2023-07-13T16:49:14;96061.69;;;24.32;40.66
58092;BME280;43896;48.178;11.578;2023-07-13T16:51:44;96066.53;;;24.47;41.12
58092;BME280;43896;48.178;11.578;2023-07-13T16:54:10;96063.84;;;24.59;40.62
58092;BME280;43896;48.178;11.578;2023-07-13T16:56:35;96065.78;;;24.63;40.55
58092;BME280;43896;48.178;11.578;2023-07-13T16:59:01;96030.09;;;24.39;40.70
58092;BME280;43896;48.178;11.578;2023-07-13T17:01:27;96057.28;;;24.55;39.41
58092;BME280;43896;48.178;11.578;2023-07-13T17:03:52;96032.53;;;24.41;39.69
58092;BME280;43896;48.178;11.578;2023-07-13T17:06:25;96028.34;;;24.16;40.89
58092;BME280;43896;48.178;11.578;2023-07-13T17:08:53;96053.56;;;24.44;40.27
58092;BME280;43896;48.178;11.578;2023-07-13T17:11:19;96049.06;;;24.32;38.99
58092;BME280;43896;48.178;11.578;2023-07-13T17:13:44;96068.47;;;24.34;42.85
58092;BME280;43896;48.178;11.578;2023-07-13T17:16:11;96058.53;;;24.35;40.47
58092;BME280;43896;48.178;11.578;2023-07-13T17:18:37;96062.31;;;24.51;39.68
58092;BME280;43896;48.178;11.578;2023-07-13T17:21:07;96020.94;;;24.23;43.01
58092;BME280;43896;48.178;11.578;2023-07-13T17:23:34;96049.50;;;24.12;40.43
58092;BME280;43896;48.178;11.578;2023-07-13T17:26:00;96052.81;;;24.31;40.93
58092;BME280;43896;48.178;11.578;2023-07-13T17:28:25;96042.09;;;24.20;41.84
58092;BME280;43896;48.178;11.578;2023-07-13T17:30:55;96052.34;;;24.34;40.23
58092;BME280;43896;48.178;11.578;2023-07-13T17:33:36;96066.22;;;24.43;39.29
58092;BME280;43896;48.178;11.578;2023-07-13T17:36:06;96053.94;;;24.36;38.86
58092;BME280;43896;48.178;11.578;2023-07-13T17:38:39;96036.25;;;24.23;38.14
58092;BME280;43896;48.178;11.578;2023-07-13T17:41:09;96052.84;;;24.20;38.63
58092;BME280;43896;48.178;11.578;2023-07-13T17:43:40;96047.25;;;24.21;40.92
58092;BME280;43896;48.178;11.578;2023-07-13T17:46:45;96072.94;;;24.17;41.91
58092;BME280;43896;48.178;11.578;2023-07-13T17:49:04;96078.19;;;24.24;41.94
58092;BME280;43896;48.178;11.578;2023-07-13T17:51:31;96064.88;;;24.17;40.31
58092;BME280;43896;48.178;11.578;2023-07-13T17:53:57;96058.81;;;23.81;41.90
58092;BME280;43896;48.178;11.578;2023-07-13T17:56:24;96074.91;;;23.81;42.09
58092;BME280;43896;48.178;11.578;2023-07-13T17:58:50;96064.38;;;23.80;41.06
58092;BME280;43896;48.178;11.578;2023-07-13T18:01:18;96082.38;;;23.91;41.23
58092;BME280;43896;48.178;11.578;2023-07-13T18:03:48;96072.19;;;23.93;41.57
58092;BME280;43896;48.178;11.578;2023-07-13T18:06:25;96058.91;;;23.86;41.82